Time;durP1;ratioP1;P1;durP2;ratioP2;P2;SDS_P1;SDS_P2;PMS_P1;PMS_P2;Temp;Humidity;BMP_temperature;BMP_pressure;BME280_temperature;BME280_humidity;BME280_pressure;Samples;Min_cycle;Max_cycle;Signal;HPM_P1;HPM_P2
2022/02/15 00:01:41;;;;;;;154.80;72.20;;;;;;;-2.08;65.59;96779.98;1666915;85;25696;-89
2022/02/15 00:04:08;;;;;;;135.68;63.87;;;;;;;-2.07;65.55;96771.07;1666941;85;25802;-90
2022/02/15 00:06:35;;;;;;;130.80;61.75;;;;;;;-2.13;65.50;96771.65;1666841;85;28213;-89
2022/02/15 00:09:02;;;;;;;119.60;58.30;;;;;;;-2.22;65.46;96766.28;1666873;86;25817;-89
2022/02/15 00:11:29;;;;;;;115.55;53.60;;;;;;;-2.23;65.60;96769.06;1662846;86;25771;-89
2022/02/15 00:13:55;;;;;;;126.10;59.60;;;;;;;-2.24;65.64;96775.33;1666884;86;25815;-88
2022/02/15 00:16:22;;;;;;;125.92;59.15;;;;;;;-2.29;65.64;96774.92;1666822;85;25253;-89
2022/02/15 00:18:48;;;;;;;116.73;56.70;;;;;;;-2.32;65.71;96769.95;1666850;86;27469;-89
2022/02/15 00:21:15;;;;;;;113.70;54.18;;;;;;;-2.34;65.71;96763.98;1666734;86;25773;-92
2022/02/15 00:23:42;;;;;;;99.92;48.25;;;;;;;-2.37;65.83;96761.63;1666818;86;25507;-90
2022/02/15 00:26:08;;;;;;;99.67;46.40;;;;;;;-2.49;65.94;96765.44;1666981;86;26395;-89
2022/02/15 00:28:36;;;;;;;106.45;53.60;;;;;;;-2.54;66.20;96765.38;1666607;84;25814;-89
2022/02/15 00:31:03;;;;;;;97.50;48.92;;;;;;;-2.49;66.32;96765.44;1666498;86;27490;-89
2022/02/15 00:33:29;;;;;;;95.10;49.98;;;;;;;-2.47;66.37;96767.45;1666676;85;25817;-88
2022/02/15 00:35:56;;;;;;;93.37;49.77;;;;;;;-2.51;66.32;96763.42;1666866;86;25967;-87
2022/02/15 00:38:23;;;;;;;96.75;49.10;;;;;;;-2.50;66.37;96769.89;1666516;85;26534;-88
2022/02/15 00:40:49;;;;;;;97.85;49.63;;;;;;;-2.50;66.41;96771.70;1666959;86;25710;-89
2022/02/15 00:43:16;;;;;;;99.65;48.68;;;;;;;-2.58;66.34;96767.98;1666765;86;27417;-89
2022/02/15 00:45:43;;;;;;;95.32;49.75;;;;;;;-2.59;66.38;96763.67;1666793;86;25531;-90
2022/02/15 00:48:09;;;;;;;103.58;49.73;;;;;;;-2.57;66.44;96768.33;1664468;86;26016;-89
2022/02/15 00:50:36;;;;;;;100.87;48.60;;;;;;;-2.57;66.44;96763.53;1680398;85;25814;-88
2022/02/15 00:53:02;;;;;;;111.47;54.42;;;;;;;-2.59;66.47;96754.91;1651433;86;25735;-88
2022/02/15 00:55:29;;;;;;;123.58;59.88;;;;;;;-2.63;66.58;96754.36;1680470;85;28290;-90
2022/02/15 00:57:55;;;;;;;127.22;58.52;;;;;;;-2.63;66.60;96749.08;1651286;86;25883;-89
2022/02/15 01:00:22;;;;;;;135.97;59.70;;;;;;;-2.64;66.54;96746.58;1680515;85;25268;-88
2022/02/15 01:06:12;;;;;;;141.23;69.53;;;;;;;-2.72;66.65;96747.32;1680543;85;25606;-92
2022/02/15 01:08:39;;;;;;;142.68;65.42;;;;;;;-2.82;66.83;96741.25;1680662;85;28194;-89
2022/02/15 01:11:06;;;;;;;127.92;58.30;;;;;;;-2.85;66.88;96738.05;1680505;84;25690;-92
2022/02/15 01:13:32;;;;;;;110.45;52.62;;;;;;;-2.84;66.90;96740.55;1680625;85;25743;-88
2022/02/15 01:15:59;;;;;;;95.17;45.60;;;;;;;-2.86;66.85;96739.86;1680554;85;25740;-88
2022/02/15 01:18:27;;;;;;;82.47;40.90;;;;;;;-2.87;66.96;96740.83;1680577;85;25822;-90
2022/02/15 01:20:54;;;;;;;88.05;41.83;;;;;;;-2.85;67.09;96732.77;1680845;85;27432;-93
2022/02/15 01:23:22;;;;;;;68.45;37.93;;;;;;;-2.81;67.19;96727.06;1680370;85;25773;-88
2022/02/15 01:25:48;;;;;;;70.32;37.85;;;;;;;-2.85;67.25;96722.20;1680637;85;25837;-91
2022/02/15 01:28:15;;;;;;;89.87;41.45;;;;;;;-2.85;67.38;96720.40;1680566;85;25693;-90
2022/02/15 01:30:42;;;;;;;77.22;39.73;;;;;;;-2.85;67.35;96719.08;1680594;85;25660;-93
2022/02/15 01:33:09;;;;;;;77.62;40.67;;;;;;;-2.88;67.32;96719.84;1680230;85;28446;-89
2022/02/15 01:35:35;;;;;;;79.97;38.15;;;;;;;-2.89;67.37;96724.30;1680421;85;25688;-89
2022/02/15 01:38:03;;;;;;;74.17;40.23;;;;;;;-2.90;67.44;96708.13;1680646;85;25696;-93
2022/02/15 01:40:30;;;;;;;94.58;45.10;;;;;;;-2.88;67.43;96704.84;1680469;85;25869;-89
2022/02/15 01:42:57;;;;;;;86.20;43.73;;;;;;;-2.89;67.37;96697.88;1680089;85;25764;-88
2022/02/15 01:45:24;;;;;;;71.15;37.00;;;;;;;-2.90;67.38;96694.41;1680397;85;27405;-93
2022/02/15 01:47:50;;;;;;;85.10;39.98;;;;;;;-2.93;67.42;96693.89;1680304;84;25811;-90
2022/02/15 01:50:17;;;;;;;80.57;40.90;;;;;;;-2.91;67.46;96691.94;1680352;85;25679;-88
2022/02/15 01:52:44;;;;;;;82.17;42.48;;;;;;;-2.92;67.48;96688.95;1680318;85;25720;-89
2022/02/15 01:55:14;;;;;;;87.70;43.65;;;;;;;-2.95;67.46;96688.75;1680576;85;25346;-89
2022/02/15 01:57:42;;;;;;;94.55;47.35;;;;;;;-2.98;67.50;96689.03;1680421;85;27467;-88
2022/02/15 02:00:14;;;;;;;87.82;43.05;;;;;;;-2.99;67.59;96694.45;1680502;84;25831;-89
2022/02/15 02:02:41;;;;;;;72.95;38.28;;;;;;;-2.98;67.62;96694.80;1680563;85;32326;-93
2022/02/15 02:07:54;;;;;;;74.92;37.60;;;;;;;-3.15;67.63;96691.13;1680218;85;25725;-91
2022/02/15 02:10:21;;;;;;;72.22;37.00;;;;;;;-3.13;67.73;96694.92;1680191;85;27415;-88
2022/02/15 02:12:48;;;;;;;63.20;33.83;;;;;;;-3.15;67.74;96695.09;1680200;85;26431;-88
2022/02/15 02:15:22;;;;;;;72.30;36.90;;;;;;;-3.16;67.79;96697.87;1680443;85;25760;-88
2022/02/15 02:17:51;;;;;;;70.85;36.35;;;;;;;-3.14;67.89;96700.69;1680008;85;25789;-91
2022/02/15 02:20:19;;;;;;;63.60;33.02;;;;;;;-3.13;67.87;96706.80;1680431;84;25429;-88
2022/02/15 02:22:46;;;;;;;61.98;31.65;;;;;;;-3.21;67.96;96695.65;1680336;85;28466;-89
2022/02/15 02:25:18;;;;;;;62.83;33.53;;;;;;;-3.31;68.09;96697.00;1680247;85;25858;-88
2022/02/15 02:27:44;;;;;;;70.23;35.00;;;;;;;-3.31;68.23;96709.36;1680623;85;25792;-89
2022/02/15 02:30:12;;;;;;;63.15;33.10;;;;;;;-3.32;68.44;96704.58;1680309;84;25791;-89
2022/02/15 02:32:40;;;;;;;64.67;33.95;;;;;;;-3.35;68.49;96698.25;1680358;85;25207;-89
2022/02/15 02:35:09;;;;;;;61.15;33.38;;;;;;;-3.29;68.54;96700.82;1680214;85;27199;-88
2022/02/15 02:37:37;;;;;;;64.20;34.58;;;;;;;-3.26;68.49;96701.34;1680267;84;25806;-88
2022/02/15 02:40:08;;;;;;;66.25;35.08;;;;;;;-3.25;68.37;96706.14;1680225;85;25679;-88
2022/02/15 02:42:35;;;;;;;74.90;39.03;;;;;;;-3.31;68.35;96703.59;1680241;85;25842;-88
2022/02/15 02:45:06;;;;;;;63.02;33.73;;;;;;;-3.31;68.44;96699.64;1680238;85;25644;-88
2022/02/15 02:47:33;;;;;;;63.40;32.25;;;;;;;-3.29;68.45;96704.30;1680185;84;27541;-87
2022/02/15 02:49:59;;;;;;;66.10;34.50;;;;;;;-3.29;68.36;96700.34;1679999;85;25718;-88
2022/02/15 02:52:26;;;;;;;68.02;35.28;;;;;;;-3.37;68.26;96705.47;1680160;85;25826;-88
2022/02/15 02:54:52;;;;;;;69.37;35.80;;;;;;;-3.40;68.30;96704.46;1680447;85;26296;-87
2022/02/15 02:57:19;;;;;;;61.28;32.58;;;;;;;-3.39;68.34;96702.66;1680494;84;25755;-88
2022/02/15 02:59:47;;;;;;;58.92;31.50;;;;;;;-3.43;68.34;96708.70;1680481;85;28103;-87
2022/02/15 03:02:14;;;;;;;58.38;30.90;;;;;;;-3.46;68.48;96705.02;1680209;85;25783;-88
2022/02/15 03:04:42;;;;;;;65.05;36.17;;;;;;;-3.43;68.59;96710.02;1680385;85;25746;-89
2022/02/15 03:07:09;;;;;;;52.70;31.05;;;;;;;-3.42;68.60;96709.05;1679469;84;26479;-87
2022/02/15 03:09:36;;;;;;;55.78;30.97;;;;;;;-3.45;68.55;96707.16;1680368;85;25754;-88
2022/02/15 03:12:04;;;;;;;56.58;30.82;;;;;;;-3.46;68.71;96707.66;1680425;85;27501;-88
2022/02/15 03:14:31;;;;;;;55.35;33.45;;;;;;;-3.43;68.67;96706.55;1680236;85;25255;-88
2022/02/15 03:16:57;;;;;;;55.63;32.58;;;;;;;-3.41;68.66;96708.07;1680453;85;25710;-88
2022/02/15 03:19:24;;;;;;;59.85;34.03;;;;;;;-3.43;68.53;96715.30;1680398;85;26309;-89
2022/02/15 03:21:51;;;;;;;57.67;35.00;;;;;;;-3.52;68.47;96721.42;1680509;85;25755;-88
2022/02/15 03:24:17;;;;;;;53.68;31.17;;;;;;;-3.59;68.51;96718.98;1680279;85;28075;-89
2022/02/15 03:26:44;;;;;;;44.73;27.35;;;;;;;-3.64;68.56;96714.64;1668205;85;25768;-91
2022/02/15 03:29:11;;;;;;;45.03;25.37;;;;;;;-3.64;68.69;96709.36;1659524;86;25719;-88
2022/02/15 03:31:40;;;;;;;51.85;27.52;;;;;;;-3.69;68.65;96703.66;1657356;86;25807;-87
2022/02/15 03:34:06;;;;;;;51.48;28.23;;;;;;;-3.71;68.76;96706.92;1657623;86;25816;-88
2022/02/15 03:36:33;;;;;;;54.85;27.22;;;;;;;-3.69;68.80;96706.30;1657663;86;28233;-87
2022/02/15 03:39:03;;;;;;;55.75;29.45;;;;;;;-3.69;68.85;96714.21;1657508;86;25696;-87
2022/02/15 03:44:14;;;;;;;54.18;27.90;;;;;;;-3.78;68.78;96715.06;1677812;85;25722;-89
2022/02/15 03:46:40;;;;;;;55.70;29.98;;;;;;;-3.87;68.85;96704.03;1651509;86;25356;-88
2022/02/15 03:49:11;;;;;;;42.25;25.25;;;;;;;-3.84;69.01;96707.20;1680935;84;27372;-88
2022/02/15 03:51:35;;;;;;;42.50;25.75;;;;;;;-3.91;69.06;96710.55;1661853;85;25992;-88
2022/02/15 03:54:02;;;;;;;49.35;27.87;;;;;;;-4.02;69.20;96711.04;1662239;86;25779;-87
2022/02/15 03:56:28;;;;;;;44.53;25.60;;;;;;;-3.95;69.38;96710.47;1662161;86;25791;-88
2022/02/15 03:58:55;;;;;;;49.38;28.00;;;;;;;-3.93;69.33;96714.64;1662172;86;25811;-89
2022/02/15 04:01:22;;;;;;;54.85;30.43;;;;;;;-3.92;69.48;96715.47;1662232;85;27962;-88
2022/02/15 04:03:48;;;;;;;62.38;33.88;;;;;;;-3.88;69.49;96716.87;1662102;86;25807;-87
2022/02/15 04:06:15;;;;;;;51.63;29.72;;;;;;;-3.83;69.54;96709.36;1662260;86;25778;-87
2022/02/15 04:08:42;;;;;;;61.33;35.00;;;;;;;-3.80;69.46;96713.88;1662150;85;25727;-88
2022/02/15 04:11:08;;;;;;;76.67;41.25;;;;;;;-3.78;69.33;96720.33;1662247;85;25771;-88
2022/02/15 04:13:35;;;;;;;73.22;40.45;;;;;;;-3.81;69.30;96714.02;1661950;86;27455;-88
2022/02/15 04:16:03;;;;;;;75.95;43.58;;;;;;;-3.80;69.29;96715.19;1662127;86;25804;-88
2022/02/15 04:18:29;;;;;;;73.30;41.08;;;;;;;-3.80;69.32;96723.11;1662108;85;26369;-88
2022/02/15 04:20:56;;;;;;;75.30;38.53;;;;;;;-3.78;69.33;96728.24;1662029;86;25791;-89
2022/02/15 04:23:22;;;;;;;68.52;37.23;;;;;;;-3.76;69.32;96726.30;1662240;85;25725;-89
2022/02/15 04:25:49;;;;;;;80.38;38.85;;;;;;;-3.79;69.26;96730.53;1662115;86;28017;-88
2022/02/15 04:28:16;;;;;;;69.00;36.70;;;;;;;-3.82;69.33;96729.48;1662062;86;25794;-88
2022/02/15 04:30:42;;;;;;;72.97;36.88;;;;;;;-3.81;69.35;96728.52;1662140;85;26302;-88
2022/02/15 04:33:09;;;;;;;66.55;35.33;;;;;;;-3.82;69.40;96734.76;1662206;85;25810;-88
2022/02/15 04:35:36;;;;;;;75.85;42.20;;;;;;;-3.94;69.24;96738.02;1662187;85;25716;-87
2022/02/15 04:38:03;;;;;;;80.97;41.18;;;;;;;-3.98;69.39;96733.17;1662098;86;27407;-88
2022/02/15 04:40:29;;;;;;;92.12;44.75;;;;;;;-3.95;69.47;96738.98;1661912;86;25851;-88
2022/02/15 04:42:56;;;;;;;112.40;52.45;;;;;;;-4.01;69.38;96740.39;1662080;86;25742;-88
2022/02/15 04:45:23;;;;;;;114.77;52.45;;;;;;;-4.07;69.41;96734.33;1662151;85;26238;-88
2022/02/15 04:47:49;;;;;;;105.03;49.33;;;;;;;-4.06;69.57;96743.91;1661795;86;26449;-88
2022/02/15 04:50:16;;;;;;;102.78;49.63;;;;;;;-4.02;69.57;96740.03;1661849;86;27357;-89
2022/02/15 04:52:42;;;;;;;107.80;50.05;;;;;;;-4.00;69.54;96747.33;1661982;86;25779;-87
2022/02/15 04:55:09;;;;;;;113.15;50.70;;;;;;;-4.01;69.53;96741.70;1657647;85;25837;-87
2022/02/15 04:57:36;;;;;;;138.22;58.30;;;;;;;-4.04;69.45;96747.24;1656756;86;25828;-87
2022/02/15 05:00:05;;;;;;;113.40;51.13;;;;;;;-4.07;69.58;96740.92;1656870;86;25789;-89
2022/02/15 05:02:31;;;;;;;104.07;47.67;;;;;;;-4.06;69.60;96739.95;1656773;86;27449;-87
2022/02/15 05:04:58;;;;;;;97.53;45.80;;;;;;;-4.05;69.56;96744.26;1656677;86;25813;-90
2022/02/15 05:07:25;;;;;;;90.12;42.38;;;;;;;-4.08;69.55;96739.25;1656817;86;25797;-88
2022/02/15 05:09:52;;;;;;;98.05;43.35;;;;;;;-3.99;69.62;96746.84;1656726;86;26502;-87
2022/02/15 05:12:19;;;;;;;111.35;49.58;;;;;;;-4.03;69.66;96742.80;1656834;85;25744;-88
2022/02/15 05:14:45;;;;;;;91.90;45.50;;;;;;;-4.09;69.81;96742.85;1656692;86;28154;-88
2022/02/15 05:17:12;;;;;;;88.72;43.68;;;;;;;-4.05;69.92;96735.03;1656634;85;25677;-88
2022/02/15 05:19:42;;;;;;;82.08;40.78;;;;;;;-4.03;69.93;96743.64;1656473;86;25793;-88
2022/02/15 05:22:08;;;;;;;77.58;37.70;;;;;;;-4.05;70.08;96736.34;1656878;86;26285;-88
2022/02/15 05:24:35;;;;;;;73.40;36.80;;;;;;;-3.96;70.14;96740.44;1656832;86;25841;-88
2022/02/15 05:27:02;;;;;;;75.75;38.53;;;;;;;-3.95;70.34;96743.42;1656763;86;27303;-87
2022/02/15 05:29:29;;;;;;;75.12;40.23;;;;;;;-3.97;70.54;96751.95;1656571;86;25911;-88
2022/02/15 05:31:55;;;;;;;91.67;47.27;;;;;;;-4.03;70.55;96756.82;1656778;86;25373;-88
2022/02/15 05:34:22;;;;;;;100.72;51.83;;;;;;;-4.05;70.54;96755.28;1656856;86;26563;-88
2022/02/15 05:36:49;;;;;;;96.00;51.53;;;;;;;-4.04;70.54;96756.95;1656713;86;25722;-88
2022/02/15 05:39:17;;;;;;;95.92;51.20;;;;;;;-4.01;70.55;96758.84;1656753;85;27446;-88
2022/02/15 05:41:43;;;;;;;97.78;51.55;;;;;;;-3.97;70.61;96768.60;1656713;86;25884;-87
2022/02/15 05:44:10;;;;;;;134.18;64.42;;;;;;;-3.99;70.62;96767.94;1656785;86;25864;-88
2022/02/15 05:46:36;;;;;;;135.78;65.17;;;;;;;-3.98;70.70;96772.20;1656741;86;25816;-88
2022/02/15 05:49:04;;;;;;;125.70;60.43;;;;;;;-3.97;70.76;96770.41;1657216;86;25701;-88
2022/02/15 05:51:30;;;;;;;112.45;54.08;;;;;;;-3.95;70.83;96772.42;1659609;86;27310;-88
2022/02/15 05:53:57;;;;;;;106.65;53.52;;;;;;;-3.91;70.89;96772.52;1659288;86;25846;-88
2022/02/15 05:56:24;;;;;;;88.58;48.25;;;;;;;-3.87;70.92;96767.31;1659633;86;26170;-88
2022/02/15 05:58:50;;;;;;;93.40;47.20;;;;;;;-3.86;70.88;96771.59;1659534;86;26620;-88
2022/02/15 06:01:17;;;;;;;95.22;48.63;;;;;;;-3.87;70.93;96773.91;1659654;86;25283;-88
2022/02/15 06:06:29;;;;;;;97.25;53.28;;;;;;;-3.89;71.13;96776.69;1659344;86;25290;-88
2022/02/15 06:08:58;;;;;;;105.90;55.75;;;;;;;-3.82;71.38;96771.67;1659629;86;25810;-89
2022/02/15 06:11:24;;;;;;;118.00;61.73;;;;;;;-3.76;71.28;96774.61;1659428;86;26238;-87
2022/02/15 06:13:53;;;;;;;122.80;61.33;;;;;;;-3.73;71.21;96779.59;1659493;86;25801;-87
2022/02/15 06:16:19;;;;;;;117.67;56.15;;;;;;;-3.71;71.21;96782.09;1659604;86;27445;-87
2022/02/15 06:18:46;;;;;;;111.75;52.53;;;;;;;-3.74;71.24;96778.41;1659611;86;25994;-87
2022/02/15 06:21:12;;;;;;;112.92;53.02;;;;;;;-3.74;71.40;96782.36;1659602;86;25692;-87
2022/02/15 06:23:39;;;;;;;97.47;48.75;;;;;;;-3.73;71.45;96779.59;1659735;86;26383;-87
2022/02/15 06:26:05;;;;;;;92.55;46.30;;;;;;;-3.69;71.50;96778.83;1659669;86;25779;-88
2022/02/15 06:28:32;;;;;;;98.25;49.83;;;;;;;-3.66;71.53;96782.03;1659706;86;27420;-87
2022/02/15 06:30:59;;;;;;;103.22;51.10;;;;;;;-3.64;71.49;96791.13;1659658;86;25835;-87
2022/02/15 06:33:26;;;;;;;92.85;50.10;;;;;;;-3.61;71.51;96790.83;1659702;86;25798;-87
2022/02/15 06:35:52;;;;;;;97.60;54.30;;;;;;;-3.55;71.48;96792.93;1659546;86;25656;-88
2022/02/15 06:38:19;;;;;;;111.65;57.80;;;;;;;-3.50;71.45;96789.38;1659657;86;25732;-87
2022/02/15 06:40:45;;;;;;;98.30;52.05;;;;;;;-3.45;71.47;96791.12;1659751;86;27220;-88
2022/02/15 06:43:12;;;;;;;94.97;52.93;;;;;;;-3.43;71.53;96785.22;1659434;86;26047;-86
2022/02/15 06:45:38;;;;;;;99.72;51.70;;;;;;;-3.39;71.59;96789.25;1659768;86;26217;-88
2022/02/15 06:48:05;;;;;;;90.95;49.05;;;;;;;-3.33;71.63;96795.27;1659400;85;25831;-87
2022/02/15 06:50:32;;;;;;;101.40;52.38;;;;;;;-3.28;71.75;96797.02;1657296;86;25827;-87
2022/02/15 06:52:58;;;;;;;98.65;50.75;;;;;;;-3.20;71.79;96802.07;1656587;86;27423;-87
2022/02/15 06:55:25;;;;;;;106.45;51.83;;;;;;;-3.15;71.92;96806.45;1656591;86;25756;-87
2022/02/15 06:57:52;;;;;;;142.85;62.50;;;;;;;-3.13;72.06;96797.88;1656682;86;25868;-87
2022/02/15 07:00:19;;;;;;;136.92;61.58;;;;;;;-3.09;72.17;96793.99;1655842;86;26572;-88
2022/02/15 07:02:45;;;;;;;120.13;57.90;;;;;;;-3.03;72.24;96793.44;1656631;86;25746;-88
2022/02/15 07:05:12;;;;;;;118.72;58.80;;;;;;;-2.96;72.28;96795.36;1656545;86;27650;-87
2022/02/15 07:07:39;;;;;;;109.65;54.80;;;;;;;-2.90;72.46;96799.25;1657650;86;26289;-87
2022/02/15 07:10:08;;;;;;;113.05;54.83;;;;;;;-2.83;72.56;96806.09;1657307;86;25811;-87
2022/02/15 07:12:35;;;;;;;112.10;54.85;;;;;;;-2.76;72.71;96809.33;1658216;86;25908;-87
2022/02/15 07:15:02;;;;;;;98.90;51.45;;;;;;;-2.68;72.91;96806.83;1654086;86;26504;-88
2022/02/15 07:17:28;;;;;;;107.20;53.52;;;;;;;-2.61;73.00;96797.33;1635100;87;27567;-88
2022/02/15 07:19:55;;;;;;;128.18;62.67;;;;;;;-2.52;73.01;96793.47;1639367;86;25820;-87
2022/02/15 07:22:21;;;;;;;135.20;64.25;;;;;;;-2.43;73.01;96796.58;1656833;86;25692;-87
2022/02/15 07:24:48;;;;;;;138.55;64.95;;;;;;;-2.33;73.03;96802.66;1656890;86;25775;-88
2022/02/15 07:27:15;;;;;;;134.80;62.27;;;;;;;-2.24;73.07;96804.41;1656923;86;25821;-88
2022/02/15 07:29:41;;;;;;;124.82;61.45;;;;;;;-2.16;73.26;96808.47;1656903;86;27385;-87
2022/02/15 07:32:09;;;;;;;135.45;66.82;;;;;;;-2.05;73.44;96809.59;1656793;86;25795;-88
2022/02/15 07:34:35;;;;;;;136.25;67.50;;;;;;;-1.94;73.36;96811.22;1656883;86;25836;-87
2022/02/15 07:37:02;;;;;;;208.07;96.00;;;;;;;-1.84;73.34;96815.47;1656930;86;25732;-88
2022/02/15 07:39:29;;;;;;;169.75;82.08;;;;;;;-1.71;73.35;96832.31;1656745;86;25796;-88
2022/02/15 07:41:55;;;;;;;141.57;68.80;;;;;;;-1.59;73.35;96831.11;1657103;86;27435;-88
2022/02/15 07:44:22;;;;;;;101.07;53.87;;;;;;;-1.47;73.37;96831.72;1657011;86;25913;-89
2022/02/15 07:46:49;;;;;;;111.70;57.48;;;;;;;-1.37;73.39;96827.19;1632477;86;25825;-88
2022/02/15 07:49:16;;;;;;;107.37;54.45;;;;;;;-1.26;73.42;96819.01;1657019;86;26350;-88
2022/02/15 07:51:44;;;;;;;92.50;48.17;;;;;;;-1.12;73.43;96819.80;1657134;86;26413;-88
2022/02/15 07:54:11;;;;;;;98.35;48.80;;;;;;;-1.00;73.43;96827.50;1656899;86;27420;-89
2022/02/15 07:56:37;;;;;;;81.15;43.40;;;;;;;-0.86;73.46;96831.75;1656728;86;25815;-89
2022/02/15 07:59:05;;;;;;;81.82;44.42;;;;;;;-0.67;73.52;96832.04;1656779;86;25933;-88
2022/02/15 08:01:32;;;;;;;80.35;43.83;;;;;;;-0.48;73.57;96836.28;1656740;86;25820;-89
2022/02/15 08:03:58;;;;;;;77.37;41.05;;;;;;;-0.26;73.57;96837.59;1656898;86;25732;-89
2022/02/15 08:06:25;;;;;;;73.50;38.88;;;;;;;-0.01;73.60;96836.72;1656845;86;27384;-87
2022/02/15 08:08:53;;;;;;;69.53;40.05;;;;;;;0.26;73.55;96833.81;1655417;86;25861;-89
2022/02/15 08:11:20;;;;;;;70.10;38.78;;;;;;;0.55;73.41;96833.41;1658847;86;25795;-88
2022/02/15 08:13:49;;;;;;;60.00;33.70;;;;;;;0.86;73.45;96830.94;1658591;86;26403;-89
2022/02/15 08:16:15;;;;;;;60.08;33.50;;;;;;;1.18;73.11;96834.62;1656535;86;25784;-89
2022/02/15 08:18:42;;;;;;;56.13;32.30;;;;;;;1.44;72.92;96835.27;1656634;86;27351;-88
2022/02/15 08:21:10;;;;;;;51.83;27.45;;;;;;;1.69;72.60;96839.52;1656138;86;25859;-88
2022/02/15 08:23:38;;;;;;;45.45;24.57;;;;;;;1.96;72.41;96838.78;1657438;86;25768;-90
2022/02/15 08:26:05;;;;;;;51.08;24.55;;;;;;;2.25;72.13;96829.70;1657534;86;25859;-90
2022/02/15 08:28:33;;;;;;;44.65;22.90;;;;;;;2.50;72.00;96833.08;1656533;86;25751;-87
2022/02/15 08:31:00;;;;;;;39.00;20.85;;;;;;;2.78;71.81;96832.88;1656677;86;28594;-88
2022/02/15 08:33:28;;;;;;;37.67;21.25;;;;;;;3.08;71.52;96824.52;1657164;85;26288;-87
2022/02/15 08:35:54;;;;;;;37.70;20.20;;;;;;;3.31;71.01;96828.49;1656619;86;25876;-88
2022/02/15 08:38:21;;;;;;;31.90;18.17;;;;;;;3.55;70.63;96822.94;1655695;86;26500;-87
2022/02/15 08:40:47;;;;;;;34.23;19.98;;;;;;;3.83;70.33;96829.83;1658127;86;25733;-87
2022/02/15 08:43:14;;;;;;;35.55;19.60;;;;;;;4.13;70.00;96831.16;1656773;86;27374;-87
2022/02/15 08:45:41;;;;;;;28.27;17.90;;;;;;;4.40;69.42;96822.47;1656288;86;25811;-87
2022/02/15 08:48:08;;;;;;;30.97;18.48;;;;;;;4.70;69.11;96824.08;1656739;86;25789;-87
2022/02/15 08:50:37;;;;;;;30.27;18.07;;;;;;;4.94;68.78;96826.91;1656671;86;25795;-88
2022/02/15 08:53:03;;;;;;;28.47;19.10;;;;;;;5.22;68.32;96816.25;1656938;86;25748;-87
2022/02/15 08:55:30;;;;;;;31.42;17.92;;;;;;;5.50;67.91;96817.63;1656907;86;27362;-89
2022/02/15 08:57:57;;;;;;;28.95;17.77;;;;;;;5.75;67.33;96816.69;1656835;86;25870;-86
2022/02/15 09:00:23;;;;;;;22.27;15.32;;;;;;;6.04;66.97;96808.44;1657345;86;25756;-88
2022/02/15 09:02:50;;;;;;;22.27;14.30;;;;;;;6.36;66.57;96806.15;1660223;86;25816;-89
2022/02/15 09:05:16;;;;;;;22.67;13.85;;;;;;;6.64;65.77;96812.23;1661993;86;25644;-86
2022/02/15 09:07:43;;;;;;;21.45;13.00;;;;;;;6.90;65.33;96806.63;1662108;86;27723;-87
2022/02/15 09:10:10;;;;;;;19.10;12.35;;;;;;;7.20;64.92;96807.94;1658666;86;25742;-88
2022/02/15 09:12:37;;;;;;;18.17;12.60;;;;;;;7.49;64.21;96804.84;1656862;86;25966;-88
2022/02/15 09:15:06;;;;;;;24.80;14.30;;;;;;;7.71;63.53;96808.17;1657948;86;25997;-88
2022/02/15 09:17:37;;;;;;;16.40;12.25;;;;;;;7.99;63.26;96810.59;1657503;86;25544;-91
2022/02/15 09:20:01;;;;;;;18.27;12.40;;;;;;;8.30;62.73;96812.61;1653792;85;27381;-90
2022/02/15 09:22:27;;;;;;;20.37;13.03;;;;;;;8.53;61.82;96810.80;1647898;86;25731;-92
2022/02/15 09:24:54;;;;;;;16.45;11.28;;;;;;;8.59;60.62;96800.00;1656503;86;25849;-92
2022/02/15 09:27:21;;;;;;;23.85;14.03;;;;;;;8.81;60.33;96799.72;1658156;86;25780;-90
2022/02/15 09:29:47;;;;;;;25.32;14.38;;;;;;;9.01;59.72;96795.88;1658190;86;25773;-90
2022/02/15 09:32:14;;;;;;;29.87;16.37;;;;;;;9.23;59.61;96796.88;1654448;85;28050;-89
2022/02/15 09:34:41;;;;;;;27.58;16.57;;;;;;;9.48;59.19;96803.11;1657256;86;26370;-90
2022/02/15 09:37:08;;;;;;;33.73;17.35;;;;;;;9.79;58.68;96794.66;1656451;86;25762;-90
2022/02/15 09:39:35;;;;;;;27.15;15.55;;;;;;;9.90;57.48;96802.84;1657150;86;25794;-89
2022/02/15 09:42:02;;;;;;;18.55;13.70;;;;;;;10.05;57.06;96807.89;1657937;86;25755;-90
2022/02/15 09:44:29;;;;;;;16.10;11.08;;;;;;;10.20;57.05;96813.80;1662122;85;27399;-91
2022/02/15 09:46:55;;;;;;;19.27;11.63;;;;;;;10.38;56.96;96808.95;1661980;86;25898;-90
2022/02/15 09:52:14;;;;;;;16.23;11.40;;;;;;;10.61;55.54;96806.92;1662495;86;25845;-90
2022/02/15 09:54:42;;;;;;;17.30;12.00;;;;;;;10.79;55.48;96805.55;1663180;85;25723;-91
2022/02/15 09:57:10;;;;;;;16.73;11.57;;;;;;;10.85;54.71;96806.00;1662975;85;27391;-91
2022/02/15 09:59:37;;;;;;;17.00;11.30;;;;;;;10.96;54.10;96806.58;1660828;85;26543;-91
2022/02/15 10:02:09;;;;;;;16.25;11.48;;;;;;;10.91;53.11;96805.07;1634692;86;25749;-91
2022/02/15 10:04:36;;;;;;;17.50;12.37;;;;;;;11.06;53.14;96810.08;1635410;86;26666;-89
2022/02/15 10:07:06;;;;;;;16.73;11.20;;;;;;;11.27;52.64;96804.16;1639380;86;25744;-89
2022/02/15 10:09:34;;;;;;;15.35;11.93;;;;;;;11.53;52.67;96806.98;1637476;86;27437;-92
2022/02/15 10:12:11;;;;;;;17.37;11.08;;;;;;;11.64;51.71;96811.59;1671910;85;25929;-90
2022/02/15 10:14:40;;;;;;;17.30;11.85;;;;;;;11.75;51.71;96814.87;1639116;86;25788;-90
2022/02/15 10:17:10;;;;;;;19.67;12.80;;;;;;;11.79;51.22;96812.53;1646848;85;26958;-89
2022/02/15 10:19:37;;;;;;;18.20;11.88;;;;;;;11.85;50.56;96817.82;1633459;86;25753;-89
2022/02/15 10:22:06;;;;;;;18.65;12.25;;;;;;;12.01;50.33;96810.91;1635149;86;27427;-91
2022/02/15 10:24:38;;;;;;;19.95;12.50;;;;;;;12.11;50.02;96811.66;1635289;86;25896;-89
2022/02/15 10:27:11;;;;;;;;;;;;;;;12.24;49.72;96804.66;1657392;86;25721;-91
2022/02/15 10:29:42;;;;;;;19.27;13.22;;;;;;;12.41;48.77;96804.25;1663686;86;25758;-91
2022/02/15 10:32:13;;;;;;;;;;;;;;;12.53;48.93;96803.70;1643158;86;25830;-91
2022/02/15 10:34:59;;;;;;;17.92;12.13;;;;;;;12.60;47.31;96790.84;1635668;87;27484;-89
2022/02/15 10:37:33;;;;;;;17.40;12.15;;;;;;;12.74;48.54;96784.63;1636516;86;25759;-90
2022/02/15 10:40:07;;;;;;;16.35;11.53;;;;;;;12.81;47.91;96783.13;1657853;86;25750;-89
2022/02/15 10:42:36;;;;;;;15.65;11.73;;;;;;;12.95;47.71;96783.97;1661584;86;25764;-88
2022/02/15 10:45:08;;;;;;;15.68;11.28;;;;;;;13.19;47.50;96786.08;1662153;85;26168;-89
2022/02/15 10:47:39;;;;;;;15.80;11.38;;;;;;;13.37;46.76;96791.84;1645822;85;28477;-88
2022/02/15 10:50:09;;;;;;;16.75;11.63;;;;;;;13.56;46.74;96782.94;1638543;86;25327;-88
2022/02/15 10:52:37;;;;;;;20.23;12.50;;;;;;;13.57;45.98;96787.30;1630868;87;25840;-89
2022/02/15 10:55:05;;;;;;;18.73;12.37;;;;;;;13.51;45.92;96789.64;1626090;86;25784;-89
2022/02/15 10:57:32;;;;;;;17.45;11.10;;;;;;;13.69;45.74;96790.76;1648028;86;25893;-89
2022/02/15 11:00:09;;;;;;;18.02;12.60;;;;;;;13.84;45.50;96788.30;1658710;86;27424;-88
2022/02/15 11:02:39;;;;;;;16.17;11.40;;;;;;;13.99;44.92;96777.70;1658434;86;25755;-89
2022/02/15 11:05:08;;;;;;;17.27;12.58;;;;;;;14.21;44.64;96779.64;1654941;85;25884;-89
2022/02/15 11:07:39;;;;;;;15.90;11.53;;;;;;;14.40;44.28;96781.02;1656532;86;25747;-88
2022/02/15 11:10:26;;;;;;;18.60;11.33;;;;;;;14.70;44.00;96777.89;1656978;86;25760;-89
2022/02/15 11:12:55;;;;;;;15.45;11.53;;;;;;;15.05;43.99;96777.49;1647674;86;27483;-90
2022/02/15 11:15:31;;;;;;;14.65;10.68;;;;;;;15.16;43.46;96779.25;1655426;86;25847;-89
2022/02/15 11:18:01;;;;;;;18.55;12.18;;;;;;;15.25;41.78;96774.98;1636521;86;25762;-89
2022/02/15 11:20:50;;;;;;;19.57;12.43;;;;;;;15.31;42.36;96768.54;1659493;86;26980;-92
2022/02/15 11:23:01;;;;;;;14.23;11.15;;;;;;;15.33;42.30;96766.92;1645853;85;25361;-90
2022/02/15 11:25:37;;;;;;;19.42;12.07;;;;;;;15.30;41.47;96780.48;1643072;86;26922;-89
2022/02/15 11:28:16;;;;;;;21.45;13.58;;;;;;;15.57;41.42;96772.36;1651093;86;26515;-90
2022/02/15 11:30:56;;;;;;;16.40;11.97;;;;;;;15.83;41.44;96776.09;1657896;86;25826;-90
2022/02/15 11:33:39;;;;;;;16.00;11.43;;;;;;;16.06;40.95;96778.45;1657869;86;25779;-90